sensor_id;sensor_type;location;lat;lon;timestamp;pressure;altitude;pressure_sealevel;temperature;humidity
19096;BME280;9680;52.520;13.332;2023-05-28T00:00:48;101936.13;;;15.13;47.26
19096;BME280;9680;52.520;13.332;2023-05-28T00:03:16;101934.44;;;15.12;47.51
19096;BME280;9680;52.520;13.332;2023-05-28T00:05:45;101941.50;;;15.10;47.61
19096;BME280;9680;52.520;13.332;2023-05-28T00:08:12;101938.13;;;15.07;47.58
19096;BME280;9680;52.520;13.332;2023-05-28T00:10:40;101939.97;;;15.05;47.92
19096;BME280;9680;52.520;13.332;2023-05-28T00:13:07;101937.41;;;15.03;47.99
19096;BME280;9680;52.520;13.332;2023-05-28T00:15:34;101931.38;;;15.01;47.74
19096;BME280;9680;52.520;13.332;2023-05-28T00:18:04;101930.56;;;14.99;47.96
19096;BME280;9680;52.520;13.332;2023-05-28T00:20:31;101927.16;;;14.97;48.07
19096;BME280;9680;52.520;13.332;2023-05-28T00:22:58;101930.69;;;14.96;48.41
19096;BME280;9680;52.520;13.332;2023-05-28T00:25:25;101927.31;;;14.92;48.58
19096;BME280;9680;52.520;13.332;2023-05-28T00:27:52;101923.88;;;14.90;48.59
19096;BME280;9680;52.520;13.332;2023-05-28T00:30:19;101919.59;;;14.88;48.53
19096;BME280;9680;52.520;13.332;2023-05-28T00:32:49;101925.75;;;14.87;48.79
19096;BME280;9680;52.520;13.332;2023-05-28T00:35:17;101919.72;;;14.84;48.79
19096;BME280;9680;52.520;13.332;2023-05-28T00:37:44;101924.16;;;14.82;49.08
19096;BME280;9680;52.520;13.332;2023-05-28T00:40:11;101917.28;;;14.80;49.26
19096;BME280;9680;52.520;13.332;2023-05-28T00:42:41;101920.00;;;14.77;49.17
19096;BME280;9680;52.520;13.332;2023-05-28T00:45:09;101914.88;;;14.74;49.19
19096;BME280;9680;52.520;13.332;2023-05-28T00:47:36;101915.84;;;14.71;49.56
19096;BME280;9680;52.520;13.332;2023-05-28T00:50:06;101914.22;;;14.67;49.66
19096;BME280;9680;52.520;13.332;2023-05-28T00:52:34;101907.31;;;14.64;49.55
19096;BME280;9680;52.520;13.332;2023-05-28T00:55:02;101911.78;;;14.62;49.88
19096;BME280;9680;52.520;13.332;2023-05-28T00:57:29;101908.34;;;14.60;49.58
19096;BME280;9680;52.520;13.332;2023-05-28T00:59:56;101909.31;;;14.57;50.11
19096;BME280;9680;52.520;13.332;2023-05-28T01:02:30;101907.63;;;14.55;49.87
19096;BME280;9680;52.520;13.332;2023-05-28T01:04:57;101908.63;;;14.52;50.36
19096;BME280;9680;52.520;13.332;2023-05-28T01:07:23;101907.84;;;14.49;50.17
19096;BME280;9680;52.520;13.332;2023-05-28T01:09:52;101908.84;;;14.46;50.18
19096;BME280;9680;52.520;13.332;2023-05-28T01:12:19;101899.38;;;14.42;50.29
19096;BME280;9680;52.520;13.332;2023-05-28T01:14:47;101900.28;;;14.41;50.66
19096;BME280;9680;52.520;13.332;2023-05-28T01:17:14;101901.25;;;14.38;50.81
19096;BME280;9680;52.520;13.332;2023-05-28T01:19:41;101903.97;;;14.35;51.01
19096;BME280;9680;52.520;13.332;2023-05-28T01:22:17;101903.16;;;14.33;50.99
19096;BME280;9680;52.520;13.332;2023-05-28T01:24:48;101895.41;;;14.30;50.87
19096;BME280;9680;52.520;13.332;2023-05-28T01:27:17;101903.34;;;14.29;51.05
19096;BME280;9680;52.520;13.332;2023-05-28T01:29:44;101902.59;;;14.25;51.22
19096;BME280;9680;52.520;13.332;2023-05-28T01:32:12;101906.16;;;14.22;51.35
19096;BME280;9680;52.520;13.332;2023-05-28T01:34:38;101914.13;;;14.19;51.20
19096;BME280;9680;52.520;13.332;2023-05-28T01:37:07;101913.38;;;14.16;51.91
19096;BME280;9680;52.520;13.332;2023-05-28T01:39:38;101904.72;;;14.13;51.54
19096;BME280;9680;52.520;13.332;2023-05-28T01:42:10;101915.25;;;14.12;51.85
19096;BME280;9680;52.520;13.332;2023-05-28T01:44:39;101902.16;;;14.12;51.58
19096;BME280;9680;52.520;13.332;2023-05-28T01:47:07;101903.13;;;14.09;51.61
19096;BME280;9680;52.520;13.332;2023-05-28T01:49:37;101907.50;;;14.09;51.66
19096;BME280;9680;52.520;13.332;2023-05-28T01:52:04;101895.31;;;14.08;51.84
19096;BME280;9680;52.520;13.332;2023-05-28T01:54:32;101896.28;;;14.05;52.17
19096;BME280;9680;52.520;13.332;2023-05-28T01:56:59;101897.19;;;14.04;51.99
19096;BME280;9680;52.520;13.332;2023-05-28T01:59:28;101906.88;;;14.02;51.94
19096;BME280;9680;52.520;13.332;2023-05-28T02:01:56;101899.91;;;14.01;52.03
19096;BME280;9680;52.520;13.332;2023-05-28T02:04:23;101903.47;;;13.98;52.34
19096;BME280;9680;52.520;13.332;2023-05-28T02:06:50;101893.97;;;13.96;52.20
19096;BME280;9680;52.520;13.332;2023-05-28T02:09:18;101895.78;;;13.94;52.40
19096;BME280;9680;52.520;13.332;2023-05-28T02:11:45;101898.47;;;13.91;52.34
19096;BME280;9680;52.520;13.332;2023-05-28T02:14:12;101892.44;;;13.89;52.47
19096;BME280;9680;52.520;13.332;2023-05-28T02:16:42;101891.59;;;13.88;52.87
19096;BME280;9680;52.520;13.332;2023-05-28T02:19:09;101890.84;;;13.84;52.83
19096;BME280;9680;52.520;13.332;2023-05-28T02:21:36;101886.59;;;13.80;52.69
19096;BME280;9680;52.520;13.332;2023-05-28T02:24:03;101896.28;;;13.78;52.81
19096;BME280;9680;52.520;13.332;2023-05-28T02:26:31;101892.81;;;13.78;53.27
19096;BME280;9680;52.520;13.332;2023-05-28T02:28:59;101893.75;;;13.75;53.19
19096;BME280;9680;52.520;13.332;2023-05-28T02:31:26;101891.22;;;13.74;53.18
19096;BME280;9680;52.520;13.332;2023-05-28T02:33:54;101888.63;;;13.72;53.53
19096;BME280;9680;52.520;13.332;2023-05-28T02:36:20;101888.69;;;13.71;53.33
19096;BME280;9680;52.520;13.332;2023-05-28T02:38:48;101889.59;;;13.69;53.48
19096;BME280;9680;52.520;13.332;2023-05-28T02:41:16;101892.31;;;13.66;53.67
19096;BME280;9680;52.520;13.332;2023-05-28T02:43:47;101893.22;;;13.65;53.46
19096;BME280;9680;52.520;13.332;2023-05-28T02:46:14;101891.50;;;13.64;53.82
19096;BME280;9680;52.520;13.332;2023-05-28T02:48:41;101892.44;;;13.63;53.75
19096;BME280;9680;52.520;13.332;2023-05-28T02:51:11;101893.34;;;13.62;53.84
19096;BME280;9680;52.520;13.332;2023-05-28T02:54:07;101893.38;;;13.61;54.21
19096;BME280;9680;52.520;13.332;2023-05-28T02:56:35;101892.53;;;13.60;54.31
19096;BME280;9680;52.520;13.332;2023-05-28T02:59:02;101896.84;;;13.61;54.35
19096;BME280;9680;52.520;13.332;2023-05-28T03:01:30;101902.09;;;13.61;54.61
19096;BME280;9680;52.520;13.332;2023-05-28T03:03:56;101895.16;;;13.60;54.42
19096;BME280;9680;52.520;13.332;2023-05-28T03:06:25;101892.53;;;13.60;54.37
19096;BME280;9680;52.520;13.332;2023-05-28T03:08:53;101898.66;;;13.59;54.70
19096;BME280;9680;52.520;13.332;2023-05-28T03:11:21;101896.91;;;13.58;54.74
19096;BME280;9680;52.520;13.332;2023-05-28T03:13:48;101899.53;;;13.58;54.98
19096;BME280;9680;52.520;13.332;2023-05-28T03:16:15;101896.88;;;13.60;55.04
19096;BME280;9680;52.520;13.332;2023-05-28T03:18:43;101896.88;;;13.60;54.96
19096;BME280;9680;52.520;13.332;2023-05-28T03:21:10;101891.66;;;13.60;54.99
19096;BME280;9680;52.520;13.332;2023-05-28T03:23:39;101886.38;;;13.61;55.39
19096;BME280;9680;52.520;13.332;2023-05-28T03:26:13;101888.09;;;13.62;55.07
19096;BME280;9680;52.520;13.332;2023-05-28T03:28:40;101879.34;;;13.63;55.19
19096;BME280;9680;52.520;13.332;2023-05-28T03:31:30;101887.19;;;13.63;55.42
19096;BME280;9680;52.520;13.332;2023-05-28T03:33:59;101890.66;;;13.64;55.49
19096;BME280;9680;52.520;13.332;2023-05-28T03:36:26;101883.66;;;13.64;55.14
19096;BME280;9680;52.520;13.332;2023-05-28T03:38:54;101881.88;;;13.65;55.72
19096;BME280;9680;52.520;13.332;2023-05-28T03:41:25;101881.84;;;13.66;55.62
19096;BME280;9680;52.520;13.332;2023-05-28T03:43:52;101882.59;;;13.70;55.39
19096;BME280;9680;52.520;13.332;2023-05-28T03:46:19;101886.88;;;13.73;55.28
19096;BME280;9680;52.520;13.332;2023-05-28T03:48:46;101883.28;;;13.75;55.62
19096;BME280;9680;52.520;13.332;2023-05-28T03:51:13;101883.28;;;13.75;55.39
19096;BME280;9680;52.520;13.332;2023-05-28T03:53:40;101887.59;;;13.78;55.81
19096;BME280;9680;52.520;13.332;2023-05-28T03:56:08;101881.44;;;13.79;55.86
19096;BME280;9680;52.520;13.332;2023-05-28T03:58:35;101877.84;;;13.81;55.55
19096;BME280;9680;52.520;13.332;2023-05-28T04:01:02;101880.34;;;13.84;55.41
19096;BME280;9680;52.520;13.332;2023-05-28T04:03:29;101887.28;;;13.87;55.80
19096;BME280;9680;52.520;13.332;2023-05-28T04:05:56;101886.38;;;13.88;55.79
19096;BME280;9680;52.520;13.332;2023-05-28T04:08:23;101888.97;;;13.88;55.75
19096;BME280;9680;52.520;13.332;2023-05-28T04:10:50;101881.94;;;13.90;55.51
19096;BME280;9680;52.520;13.332;2023-05-28T04:13:18;101887.06;;;13.93;55.41
19096;BME280;9680;52.520;13.332;2023-05-28T04:15:46;101884.31;;;13.98;55.37
19096;BME280;9680;52.520;13.332;2023-05-28T04:18:13;101898.13;;;14.02;55.22
19096;BME280;9680;52.520;13.332;2023-05-28T04:20:41;101874.41;;;14.06;55.04
19096;BME280;9680;52.520;13.332;2023-05-28T04:23:08;101877.72;;;14.11;55.12
19096;BME280;9680;52.520;13.332;2023-05-28T04:25:35;101880.81;;;14.23;55.17
19096;BME280;9680;52.520;13.332;2023-05-28T04:28:02;101877.03;;;14.32;54.82
19096;BME280;9680;52.520;13.332;2023-05-28T04:30:32;101883.69;;;14.40;54.74
19096;BME280;9680;52.520;13.332;2023-05-28T04:32:59;101876.47;;;14.47;54.17
19096;BME280;9680;52.520;13.332;2023-05-28T04:35:26;101881.59;;;14.50;53.98
19096;BME280;9680;52.520;13.332;2023-05-28T04:37:54;101879.81;;;14.51;54.05
19096;BME280;9680;52.520;13.332;2023-05-28T04:40:21;101885.84;;;14.53;53.89
19096;BME280;9680;52.520;13.332;2023-05-28T04:42:48;101886.63;;;14.56;54.13
19096;BME280;9680;52.520;13.332;2023-05-28T04:45:15;101875.22;;;14.57;54.24
19096;BME280;9680;52.520;13.332;2023-05-28T04:47:47;101885.56;;;14.62;53.80
19096;BME280;9680;52.520;13.332;2023-05-28T04:50:14;101879.31;;;14.65;53.87
19096;BME280;9680;52.520;13.332;2023-05-28T04:52:41;101879.16;;;14.69;54.14
19096;BME280;9680;52.520;13.332;2023-05-28T04:55:08;101878.16;;;14.74;54.11
19096;BME280;9680;52.520;13.332;2023-05-28T04:57:37;101877.13;;;14.78;54.11
19096;BME280;9680;52.520;13.332;2023-05-28T05:00:07;101884.81;;;14.82;53.30
19096;BME280;9680;52.520;13.332;2023-05-28T05:02:38;101886.63;;;14.80;53.25
19096;BME280;9680;52.520;13.332;2023-05-28T05:05:07;101888.22;;;14.84;53.22
19096;BME280;9680;52.520;13.332;2023-05-28T05:07:35;101885.50;;;14.88;52.74
19096;BME280;9680;52.520;13.332;2023-05-28T05:10:02;101894.06;;;14.93;52.91
19096;BME280;9680;52.520;13.332;2023-05-28T05:12:30;101884.31;;;14.96;52.14
19096;BME280;9680;52.520;13.332;2023-05-28T05:14:57;101883.34;;;14.99;52.15
19096;BME280;9680;52.520;13.332;2023-05-28T05:17:24;101877.91;;;15.04;52.04
19096;BME280;9680;52.520;13.332;2023-05-28T05:19:51;101876.75;;;15.11;51.79
19096;BME280;9680;52.520;13.332;2023-05-28T05:22:20;101875.66;;;15.17;51.93
19096;BME280;9680;52.520;13.332;2023-05-28T05:24:48;101872.91;;;15.20;51.87
19096;BME280;9680;52.520;13.332;2023-05-28T05:27:15;101874.38;;;15.27;51.86
19096;BME280;9680;52.520;13.332;2023-05-28T05:29:42;101874.09;;;15.35;51.36
19096;BME280;9680;52.520;13.332;2023-05-28T05:32:09;101871.09;;;15.44;51.59
19096;BME280;9680;52.520;13.332;2023-05-28T05:34:36;101868.91;;;15.54;51.31
19096;BME280;9680;52.520;13.332;2023-05-28T05:37:23;101860.69;;;15.63;51.36
19096;BME280;9680;52.520;13.332;2023-05-28T05:40:06;101870.06;;;15.69;51.08
19096;BME280;9680;52.520;13.332;2023-05-28T05:42:57;101862.84;;;15.74;50.72
19096;BME280;9680;52.520;13.332;2023-05-28T05:45:24;101877.41;;;15.81;50.57
19096;BME280;9680;52.520;13.332;2023-05-28T05:47:52;101878.94;;;15.87;49.88
19096;BME280;9680;52.520;13.332;2023-05-28T05:50:19;101875.91;;;15.98;50.10
19096;BME280;9680;52.520;13.332;2023-05-28T05:52:48;101875.28;;;16.12;49.78
19096;BME280;9680;52.520;13.332;2023-05-28T05:55:15;101868.66;;;16.24;49.37
19096;BME280;9680;52.520;13.332;2023-05-28T05:57:42;101875.22;;;16.34;49.79
19096;BME280;9680;52.520;13.332;2023-05-28T06:00:11;101864.41;;;16.40;49.58
19096;BME280;9680;52.520;13.332;2023-05-28T06:02:47;101875.38;;;16.50;48.73
19096;BME280;9680;52.520;13.332;2023-05-28T06:05:33;101872.34;;;16.59;48.04
19096;BME280;9680;52.520;13.332;2023-05-28T06:08:25;101870.63;;;16.58;46.95
19096;BME280;9680;52.520;13.332;2023-05-28T06:11:10;101875.31;;;16.71;46.65
19096;BME280;9680;52.520;13.332;2023-05-28T06:13:37;101874.84;;;16.82;46.56
19096;BME280;9680;52.520;13.332;2023-05-28T06:16:04;101872.56;;;16.93;46.38
19096;BME280;9680;52.520;13.332;2023-05-28T06:18:31;101875.72;;;17.01;45.60
19096;BME280;9680;52.520;13.332;2023-05-28T06:21:01;101873.56;;;17.10;45.28
19096;BME280;9680;52.520;13.332;2023-05-28T06:23:30;101869.56;;;17.20;44.90
19096;BME280;9680;52.520;13.332;2023-05-28T06:25:57;101868.22;;;17.30;44.56
19096;BME280;9680;52.520;13.332;2023-05-28T06:28:24;101871.16;;;17.42;43.75
19096;BME280;9680;52.520;13.332;2023-05-28T06:30:52;101868.13;;;17.50;43.58
19096;BME280;9680;52.520;13.332;2023-05-28T06:33:19;101859.94;;;17.56;43.35
19096;BME280;9680;52.520;13.332;2023-05-28T06:35:46;101869.00;;;17.68;42.90
19096;BME280;9680;52.520;13.332;2023-05-28T06:38:13;101864.91;;;17.80;42.64
19096;BME280;9680;52.520;13.332;2023-05-28T06:40:43;101865.22;;;17.91;42.57
19096;BME280;9680;52.520;13.332;2023-05-28T06:43:10;101857.84;;;17.98;42.45
19096;BME280;9680;52.520;13.332;2023-05-28T06:45:55;101863.34;;;18.11;42.08
19096;BME280;9680;52.520;13.332;2023-05-28T06:48:23;101864.06;;;18.14;40.93
19096;BME280;9680;52.520;13.332;2023-05-28T06:50:50;101868.06;;;18.22;40.79
19096;BME280;9680;52.520;13.332;2023-05-28T06:53:18;101865.72;;;18.33;40.81
19096;BME280;9680;52.520;13.332;2023-05-28T06:55:46;101864.22;;;18.45;40.17
19096;BME280;9680;52.520;13.332;2023-05-28T06:58:31;101864.06;;;18.48;39.38
19096;BME280;9680;52.520;13.332;2023-05-28T07:01:07;101861.69;;;18.59;39.42
19096;BME280;9680;52.520;13.332;2023-05-28T07:03:48;101863.66;;;18.72;39.30
19096;BME280;9680;52.520;13.332;2023-05-28T07:06:28;101855.81;;;18.86;39.10
19096;BME280;9680;52.520;13.332;2023-05-28T07:08:55;101861.44;;;18.96;38.14
19096;BME280;9680;52.520;13.332;2023-05-28T07:11:24;101856.63;;;19.04;38.02
19096;BME280;9680;52.520;13.332;2023-05-28T07:13:52;101859.50;;;19.16;37.30
19096;BME280;9680;52.520;13.332;2023-05-28T07:16:21;101845.09;;;19.21;37.06
19096;BME280;9680;52.520;13.332;2023-05-28T07:18:48;101849.38;;;19.24;36.85
19096;BME280;9680;52.520;13.332;2023-05-28T07:21:16;101848.56;;;19.38;37.08
19096;BME280;9680;52.520;13.332;2023-05-28T07:23:45;101850.94;;;19.43;35.92
19096;BME280;9680;52.520;13.332;2023-05-28T07:26:13;101857.00;;;19.45;35.67
19096;BME280;9680;52.520;13.332;2023-05-28T07:28:41;101856.28;;;19.57;35.28
19096;BME280;9680;52.520;13.332;2023-05-28T07:31:08;101852.25;;;19.66;34.58
19096;BME280;9680;52.520;13.332;2023-05-28T07:33:35;101850.38;;;19.68;34.10
19096;BME280;9680;52.520;13.332;2023-05-28T07:36:03;101851.69;;;19.75;34.54
19096;BME280;9680;52.520;13.332;2023-05-28T07:38:32;101860.19;;;19.81;34.31
19096;BME280;9680;52.520;13.332;2023-05-28T07:41:00;101858.13;;;19.86;34.45
19096;BME280;9680;52.520;13.332;2023-05-28T07:43:50;101856.25;;;19.88;34.15
19096;BME280;9680;52.520;13.332;2023-05-28T07:46:20;101855.91;;;19.94;33.76
19096;BME280;9680;52.520;13.332;2023-05-28T07:48:51;101853.19;;;19.96;33.23
19096;BME280;9680;52.520;13.332;2023-05-28T07:51:24;101851.81;;;19.88;33.06
19096;BME280;9680;52.520;13.332;2023-05-28T07:54:15;101856.09;;;19.91;33.10
19096;BME280;9680;52.520;13.332;2023-05-28T07:56:42;101842.94;;;19.89;32.89
19096;BME280;9680;52.520;13.332;2023-05-28T07:59:16;101846.84;;;19.98;33.43
19096;BME280;9680;52.520;13.332;2023-05-28T08:01:47;101842.50;;;20.12;33.41
19096;BME280;9680;52.520;13.332;2023-05-28T08:04:14;101838.38;;;20.22;33.22
19096;BME280;9680;52.520;13.332;2023-05-28T08:06:41;101824.84;;;20.27;32.62
19096;BME280;9680;52.520;13.332;2023-05-28T08:09:11;101832.91;;;20.25;31.38
19096;BME280;9680;52.520;13.332;2023-05-28T08:11:41;101827.59;;;20.25;32.30
19096;BME280;9680;52.520;13.332;2023-05-28T08:14:09;101832.59;;;20.30;32.34
19096;BME280;9680;52.520;13.332;2023-05-28T08:16:40;101828.53;;;20.39;32.22
19096;BME280;9680;52.520;13.332;2023-05-28T08:19:33;101828.91;;;20.47;31.71
19096;BME280;9680;52.520;13.332;2023-05-28T08:22:05;101828.97;;;20.45;31.60
19096;BME280;9680;52.520;13.332;2023-05-28T08:24:33;101834.94;;;20.49;31.66
19096;BME280;9680;52.520;13.332;2023-05-28T08:27:00;101828.44;;;20.40;30.47
19096;BME280;9680;52.520;13.332;2023-05-28T08:29:28;101824.28;;;20.36;30.62
19096;BME280;9680;52.520;13.332;2023-05-28T08:32:01;101828.44;;;20.40;31.21
19096;BME280;9680;52.520;13.332;2023-05-28T08:34:39;101826.06;;;20.50;30.57
19096;BME280;9680;52.520;13.332;2023-05-28T08:37:07;101823.22;;;20.53;30.97
19096;BME280;9680;52.520;13.332;2023-05-28T08:40:00;101818.94;;;20.65;30.59
19096;BME280;9680;52.520;13.332;2023-05-28T08:42:28;101822.03;;;20.72;30.72
19096;BME280;9680;52.520;13.332;2023-05-28T08:44:56;101828.47;;;20.82;30.28
19096;BME280;9680;52.520;13.332;2023-05-28T08:47:28;101813.44;;;20.83;29.92
19096;BME280;9680;52.520;13.332;2023-05-28T08:50:07;101830.09;;;20.85;30.00
19096;BME280;9680;52.520;13.332;2023-05-28T08:52:51;101819.22;;;20.60;29.21
19096;BME280;9680;52.520;13.332;2023-05-28T08:55:19;101816.38;;;20.63;30.11
19096;BME280;9680;52.520;13.332;2023-05-28T08:57:52;101811.63;;;20.83;30.06
19096;BME280;9680;52.520;13.332;2023-05-28T09:00:20;101812.25;;;21.01;30.40
19096;BME280;9680;52.520;13.332;2023-05-28T09:03:09;101814.19;;;21.12;29.48
19096;BME280;9680;52.520;13.332;2023-05-28T09:05:37;101812.38;;;21.13;29.61
19096;BME280;9680;52.520;13.332;2023-05-28T09:08:06;101808.97;;;21.10;29.56
19096;BME280;9680;52.520;13.332;2023-05-28T09:10:33;101800.75;;;21.15;29.27
19096;BME280;9680;52.520;13.332;2023-05-28T09:13:02;101800.25;;;21.23;29.79
19096;BME280;9680;52.520;13.332;2023-05-28T09:15:31;101787.88;;;21.36;29.77
19096;BME280;9680;52.520;13.332;2023-05-28T09:18:01;101790.50;;;21.49;29.63
19096;BME280;9680;52.520;13.332;2023-05-28T09:20:30;101793.41;;;21.59;29.27
19096;BME280;9680;52.520;13.332;2023-05-28T09:22:58;101792.78;;;21.68;29.07
19096;BME280;9680;52.520;13.332;2023-05-28T09:26:01;101784.94;;;21.80;29.19
19096;BME280;9680;52.520;13.332;2023-05-28T09:28:40;101785.28;;;21.75;28.49
19096;BME280;9680;52.520;13.332;2023-05-28T09:31:08;101783.88;;;21.70;28.53
19096;BME280;9680;52.520;13.332;2023-05-28T09:33:36;101784.41;;;21.75;28.52
19096;BME280;9680;52.520;13.332;2023-05-28T09:36:09;101773.72;;;21.76;28.45
19096;BME280;9680;52.520;13.332;2023-05-28T09:38:40;101766.50;;;21.65;27.52
19096;BME280;9680;52.520;13.332;2023-05-28T09:41:18;101769.31;;;21.62;28.34
19096;BME280;9680;52.520;13.332;2023-05-28T09:43:55;101765.44;;;21.68;28.27
19096;BME280;9680;52.520;13.332;2023-05-28T09:46:26;101767.03;;;21.71;28.14
19096;BME280;9680;52.520;13.332;2023-05-28T09:48:53;101760.03;;;21.70;28.21
19096;BME280;9680;52.520;13.332;2023-05-28T09:51:24;101769.66;;;21.71;27.41
19096;BME280;9680;52.520;13.332;2023-05-28T09:53:58;101760.16;;;21.68;27.98
19096;BME280;9680;52.520;13.332;2023-05-28T09:56:27;101757.44;;;21.55;27.36
19096;BME280;9680;52.520;13.332;2023-05-28T09:58:57;101758.81;;;21.35;27.43
19096;BME280;9680;52.520;13.332;2023-05-28T10:01:30;101764.75;;;21.38;27.91
19096;BME280;9680;52.520;13.332;2023-05-28T10:04:02;101750.97;;;21.59;28.18
19096;BME280;9680;52.520;13.332;2023-05-28T10:06:34;101755.25;;;21.75;28.08
19096;BME280;9680;52.520;13.332;2023-05-28T10:09:02;101755.25;;;21.88;27.82
19096;BME280;9680;52.520;13.332;2023-05-28T10:11:30;101754.28;;;21.89;27.55
19096;BME280;9680;52.520;13.332;2023-05-28T10:14:02;101753.25;;;21.91;27.89
19096;BME280;9680;52.520;13.332;2023-05-28T10:16:29;101755.78;;;21.93;27.56
19096;BME280;9680;52.520;13.332;2023-05-28T10:18:56;101747.50;;;21.98;27.96
19096;BME280;9680;52.520;13.332;2023-05-28T10:21:24;101748.53;;;22.08;27.70
19096;BME280;9680;52.520;13.332;2023-05-28T10:23:53;101748.84;;;22.03;27.27
19096;BME280;9680;52.520;13.332;2023-05-28T10:26:20;101747.59;;;22.09;27.05
19096;BME280;9680;52.520;13.332;2023-05-28T10:28:53;101741.19;;;22.11;27.00
19096;BME280;9680;52.520;13.332;2023-05-28T10:31:21;101745.28;;;22.29;27.26
19096;BME280;9680;52.520;13.332;2023-05-28T10:33:49;101738.03;;;22.44;27.43
19096;BME280;9680;52.520;13.332;2023-05-28T10:36:17;101730.66;;;22.60;27.72
19096;BME280;9680;52.520;13.332;2023-05-28T10:38:45;101734.72;;;22.77;27.57
19096;BME280;9680;52.520;13.332;2023-05-28T10:41:19;101733.06;;;22.88;27.74
19096;BME280;9680;52.520;13.332;2023-05-28T10:43:47;101736.50;;;23.01;27.86
19096;BME280;9680;52.520;13.332;2023-05-28T10:46:16;101738.94;;;23.04;26.79
19096;BME280;9680;52.520;13.332;2023-05-28T10:49:11;101741.44;;;22.94;27.23
19096;BME280;9680;52.520;13.332;2023-05-28T10:51:58;101745.22;;;22.79;26.97
19096;BME280;9680;52.520;13.332;2023-05-28T10:54:40;101736.28;;;22.80;26.59
19096;BME280;9680;52.520;13.332;2023-05-28T10:57:17;101732.03;;;22.66;26.82
19096;BME280;9680;52.520;13.332;2023-05-28T10:59:46;101731.44;;;22.74;26.40
19096;BME280;9680;52.520;13.332;2023-05-28T11:02:22;101730.75;;;22.83;26.79
19096;BME280;9680;52.520;13.332;2023-05-28T11:04:52;101728.53;;;23.01;26.72
19096;BME280;9680;52.520;13.332;2023-05-28T11:07:21;101734.72;;;23.02;26.24
19096;BME280;9680;52.520;13.332;2023-05-28T11:09:48;101732.88;;;23.02;26.12
19096;BME280;9680;52.520;13.332;2023-05-28T11:12:19;101732.38;;;22.97;25.85
19096;BME280;9680;52.520;13.332;2023-05-28T11:14:47;101732.06;;;23.13;26.22
19096;BME280;9680;52.520;13.332;2023-05-28T11:17:15;101736.28;;;23.16;25.28
19096;BME280;9680;52.520;13.332;2023-05-28T11:19:43;101726.97;;;22.98;25.68
19096;BME280;9680;52.520;13.332;2023-05-28T11:22:11;101731.66;;;22.95;26.16
19096;BME280;9680;52.520;13.332;2023-05-28T11:24:56;101739.44;;;22.85;26.03
19096;BME280;9680;52.520;13.332;2023-05-28T11:27:27;101724.66;;;22.94;25.99
19096;BME280;9680;52.520;13.332;2023-05-28T11:29:55;101730.72;;;23.07;26.03
19096;BME280;9680;52.520;13.332;2023-05-28T11:32:23;101729.06;;;23.18;26.39
19096;BME280;9680;52.520;13.332;2023-05-28T11:34:50;101733.06;;;23.23;26.25
19096;BME280;9680;52.520;13.332;2023-05-28T11:37:23;101721.41;;;23.37;26.19
19096;BME280;9680;52.520;13.332;2023-05-28T11:39:52;101723.75;;;23.53;25.75
19096;BME280;9680;52.520;13.332;2023-05-28T11:42:19;101708.28;;;23.59;25.35
19096;BME280;9680;52.520;13.332;2023-05-28T11:44:48;101714.56;;;23.58;25.90
19096;BME280;9680;52.520;13.332;2023-05-28T11:47:16;101710.78;;;23.71;25.51
19096;BME280;9680;52.520;13.332;2023-05-28T11:49:43;101711.16;;;23.55;25.05
19096;BME280;9680;52.520;13.332;2023-05-28T11:52:12;101711.50;;;23.39;24.44
19096;BME280;9680;52.520;13.332;2023-05-28T11:54:39;101705.72;;;23.34;25.05
19096;BME280;9680;52.520;13.332;2023-05-28T11:57:07;101709.69;;;23.40;24.42
19096;BME280;9680;52.520;13.332;2023-05-28T11:59:35;101703.88;;;23.35;24.64
19096;BME280;9680;52.520;13.332;2023-05-28T12:02:14;101705.81;;;23.44;24.87
19096;BME280;9680;52.520;13.332;2023-05-28T12:04:53;101692.91;;;23.51;24.18
19096;BME280;9680;52.520;13.332;2023-05-28T12:07:20;101691.06;;;23.51;24.10
19096;BME280;9680;52.520;13.332;2023-05-28T12:09:47;101689.28;;;23.63;24.02
19096;BME280;9680;52.520;13.332;2023-05-28T12:12:14;101684.09;;;23.62;24.24
19096;BME280;9680;52.520;13.332;2023-05-28T12:14:44;101684.69;;;23.65;24.56
19096;BME280;9680;52.520;13.332;2023-05-28T12:17:13;101690.63;;;23.69;24.16
19096;BME280;9680;52.520;13.332;2023-05-28T12:19:40;101681.69;;;23.59;23.50
19096;BME280;9680;52.520;13.332;2023-05-28T12:22:13;101683.22;;;23.61;23.87
19096;BME280;9680;52.520;13.332;2023-05-28T12:24:47;101673.31;;;23.52;23.38
19096;BME280;9680;52.520;13.332;2023-05-28T12:27:13;101674.19;;;23.64;24.15
19096;BME280;9680;52.520;13.332;2023-05-28T12:29:40;101679.00;;;23.70;24.39
19096;BME280;9680;52.520;13.332;2023-05-28T12:32:07;101653.38;;;23.80;24.42
19096;BME280;9680;52.520;13.332;2023-05-28T12:34:36;101665.56;;;23.94;24.37
19096;BME280;9680;52.520;13.332;2023-05-28T12:37:02;101661.09;;;23.83;23.51
19096;BME280;9680;52.520;13.332;2023-05-28T12:39:29;101656.50;;;23.74;23.32
19096;BME280;9680;52.520;13.332;2023-05-28T12:41:56;101665.94;;;23.78;22.61
19096;BME280;9680;52.520;13.332;2023-05-28T12:44:23;101656.38;;;23.76;23.63
19096;BME280;9680;52.520;13.332;2023-05-28T12:46:50;101658.91;;;23.89;23.65
19096;BME280;9680;52.520;13.332;2023-05-28T12:49:18;101654.31;;;24.02;23.91
19096;BME280;9680;52.520;13.332;2023-05-28T12:51:46;101653.91;;;24.18;23.74
19096;BME280;9680;52.520;13.332;2023-05-28T12:54:13;101653.75;;;24.31;23.62
19096;BME280;9680;52.520;13.332;2023-05-28T12:56:39;101654.34;;;24.35;24.04
19096;BME280;9680;52.520;13.332;2023-05-28T12:59:08;101655.41;;;24.43;24.04
19096;BME280;9680;52.520;13.332;2023-05-28T13:01:35;101648.84;;;24.48;23.80
19096;BME280;9680;52.520;13.332;2023-05-28T13:04:02;101647.94;;;24.37;23.07